Time;durP1;ratioP1;P1;durP2;ratioP2;P2;SDS_P1;SDS_P2;PMS_P1;PMS_P2;Temp;Humidity;BMP_temperature;BMP_pressure;BME280_temperature;BME280_humidity;BME280_pressure;Samples;Min_cycle;Max_cycle;Signal;HPM_P1;HPM_P2
2022/01/03 00:03:36;;;;;;;36.58;21.27;;;;;;;7.95;100.00;99649.59;5085651;28;20083;-95
2022/01/03 00:06:03;;;;;;;35.17;21.35;;;;;;;8.09;100.00;99661.94;5085130;28;20521;-94
2022/01/03 00:08:30;;;;;;;35.13;21.70;;;;;;;7.93;100.00;99646.09;5085709;28;20048;-95
2022/01/03 00:10:58;;;;;;;33.88;21.77;;;;;;;7.92;100.00;99643.47;5086097;28;20128;-96
2022/01/03 00:13:25;;;;;;;30.90;19.00;;;;;;;7.99;100.00;99659.31;5086289;28;20036;-95
2022/01/03 00:15:52;;;;;;;31.25;18.27;;;;;;;7.93;100.00;99645.22;5086418;28;20044;-95
2022/01/03 00:18:18;;;;;;;28.77;16.67;;;;;;;8.03;100.00;99657.56;5084396;28;20105;-94
2022/01/03 00:20:56;;;;;;;30.23;17.52;;;;;;;7.99;100.00;99655.78;5084134;28;20494;-95
2022/01/03 00:23:24;;;;;;;30.33;17.48;;;;;;;7.98;100.00;99638.13;5084978;28;20036;-94
2022/01/03 00:25:54;;;;;;;27.50;17.65;;;;;;;8.05;100.00;99647.84;5084661;28;20045;-96
2022/01/03 00:28:22;;;;;;;;;;;;;;;8.25;100.00;99668.09;5084555;28;20048;-93
2022/01/03 00:34:35;;;;;;;33.72;17.42;;;;;;;8.24;100.00;99667.22;5084314;28;20041;-94
2022/01/03 00:37:01;;;;;;;32.42;19.38;;;;;;;8.13;100.00;99645.16;5083963;28;20079;-94
2022/01/03 00:39:32;;;;;;;37.25;22.17;;;;;;;8.08;100.00;99642.50;5084461;28;20551;-93
2022/01/03 00:41:59;;;;;;;35.05;20.45;;;;;;;8.03;100.00;99626.63;5083713;28;20045;-95
2022/01/03 00:44:30;;;;;;;36.92;20.17;;;;;;;8.03;100.00;99631.06;5084210;28;20100;-93
2022/01/03 00:46:57;;;;;;;;;;;;;;;8.18;100.00;99660.16;5084157;28;20052;-94
2022/01/03 00:49:23;;;;;;;36.35;21.15;;;;;;;8.10;100.00;99646.03;5084426;28;19987;-94
2022/01/03 00:51:49;;;;;;;35.45;20.33;;;;;;;8.02;100.00;99626.63;5084018;28;20067;-94
2022/01/03 00:54:15;;;;;;;34.20;20.92;;;;;;;7.95;100.00;99620.47;5084044;28;20048;-94
2022/01/03 00:56:46;;;;;;;39.90;23.48;;;;;;;7.99;100.00;99618.72;5083838;28;20074;-93
2022/01/03 00:59:15;;;;;;;36.22;21.90;;;;;;;7.92;100.00;99606.38;5083783;28;20048;-94
2022/01/03 01:04:46;;;;;;;36.75;21.52;;;;;;;7.94;100.00;99612.56;5083249;28;19926;-95
2022/01/03 01:07:16;;;;;;;38.03;22.30;;;;;;;7.94;100.00;99616.09;5084318;28;20434;-94
2022/01/03 01:09:49;;;;;;;40.47;22.63;;;;;;;8.02;100.00;99627.53;5083720;28;20047;-95
2022/01/03 01:12:15;;;;;;;37.65;22.15;;;;;;;7.92;100.00;99595.78;5083394;28;20052;-95
2022/01/03 01:14:41;;;;;;;40.40;22.13;;;;;;;7.90;100.00;99598.44;5083626;28;20062;-94
2022/01/03 01:20:35;;;;;;;34.00;20.63;;;;;;;7.89;100.00;99596.66;5082535;28;20025;-94
2022/01/03 01:23:01;;;;;;;42.00;24.58;;;;;;;7.93;100.00;99593.13;5083497;28;20040;-94
2022/01/03 01:28:24;;;;;;;40.28;23.88;;;;;;;7.94;100.00;99604.63;5099410;27;20405;-94
2022/01/03 01:34:34;;;;;;;37.78;21.67;;;;;;;8.06;100.00;99624.88;5098771;28;20040;-94
2022/01/03 01:37:00;;;;;;;41.72;23.85;;;;;;;7.91;100.00;99596.66;5099181;28;20043;-93
2022/01/03 01:39:30;;;;;;;38.00;22.52;;;;;;;7.81;100.00;99577.28;5098848;28;20461;-95
2022/01/03 01:41:59;;;;;;;38.65;23.27;;;;;;;7.86;100.00;99579.91;5099235;28;20037;-95
2022/01/03 01:44:28;;;;;;;38.58;21.98;;;;;;;7.91;100.00;99589.59;5098311;28;20051;-95
2022/01/03 01:50:17;;;;;;;35.58;20.25;;;;;;;7.91;100.00;99578.13;5098383;28;20194;-94
2022/01/03 01:52:46;;;;;;;36.17;21.92;;;;;;;7.85;100.00;99555.22;5098550;28;20040;-95
2022/01/03 01:55:16;;;;;;;37.90;21.65;;;;;;;7.76;100.00;99558.78;5099217;28;20509;-94
2022/01/03 01:58:01;;;;;;;37.72;22.20;;;;;;;7.87;100.00;99561.38;5099435;28;20045;-94
2022/01/03 02:03:59;;;;;;;37.05;21.50;;;;;;;7.83;100.00;99570.22;5097592;28;20024;-94
2022/01/03 02:06:40;;;;;;;36.67;21.58;;;;;;;7.80;100.00;99556.97;5098483;28;20108;-93
2022/01/03 02:09:09;;;;;;;35.33;20.63;;;;;;;7.80;100.00;99563.13;5098175;28;20126;-95
2022/01/03 02:11:49;;;;;;;35.87;21.40;;;;;;;7.79;100.00;99561.41;5097824;28;20048;-95
2022/01/03 02:14:16;;;;;;;36.28;20.73;;;;;;;7.79;100.00;99573.75;5097563;28;20044;-94
2022/01/03 02:16:42;;;;;;;35.85;20.17;;;;;;;7.87;100.00;99574.63;5095740;28;20143;-95
2022/01/03 02:19:10;;;;;;;34.58;19.73;;;;;;;7.85;100.00;99584.34;5096880;28;20497;-95
2022/01/03 02:21:37;;;;;;;35.55;20.70;;;;;;;7.81;100.00;99570.22;5098015;28;20050;-95
2022/01/03 02:24:04;;;;;;;32.55;19.17;;;;;;;7.76;100.00;99544.63;5096932;28;20048;-95
2022/01/03 02:26:31;;;;;;;32.78;18.75;;;;;;;7.90;100.00;99569.31;5096212;28;20079;-95
2022/01/03 02:28:57;;;;;;;33.90;19.35;;;;;;;7.76;100.00;99537.59;5097625;28;20048;-94
2022/01/03 02:31:23;;;;;;;32.70;18.33;;;;;;;7.86;100.00;99540.19;5096773;28;20523;-95
2022/01/03 02:33:50;;;;;;;30.65;18.17;;;;;;;7.81;100.00;99522.56;5096823;28;20096;-95
2022/01/03 02:36:17;;;;;;;33.20;18.15;;;;;;;7.86;100.00;99530.47;5097739;28;20544;-95
2022/01/03 02:38:44;;;;;;;32.50;17.90;;;;;;;7.75;100.00;99517.28;5088011;28;20070;-93
2022/01/03 02:41:10;;;;;;;29.10;16.55;;;;;;;7.80;100.00;99534.00;5083096;28;20506;-94
2022/01/03 02:43:36;;;;;;;30.33;16.67;;;;;;;7.77;100.00;99519.94;5083306;28;20048;-93
2022/01/03 02:46:02;;;;;;;26.90;15.52;;;;;;;7.76;100.00;99516.41;5083102;28;20116;-95
2022/01/03 02:48:29;;;;;;;30.13;16.90;;;;;;;7.76;100.00;99505.81;5083536;28;20076;-95
2022/01/03 02:50:56;;;;;;;27.60;16.27;;;;;;;7.89;100.00;99519.84;5083063;28;20048;-93
2022/01/03 02:53:22;;;;;;;27.92;15.52;;;;;;;7.78;100.00;99476.66;5083540;28;20094;-94
2022/01/03 02:55:49;;;;;;;28.17;15.55;;;;;;;7.78;100.00;99476.66;5083374;28;20036;-95
2022/01/03 02:58:16;;;;;;;28.98;16.23;;;;;;;7.84;100.00;99504.91;5083797;28;20102;-94
2022/01/03 03:00:45;;;;;;;25.48;15.35;;;;;;;7.81;100.00;99497.84;5083662;28;20132;-94
2022/01/03 03:03:14;;;;;;;28.35;15.50;;;;;;;7.87;100.00;99508.41;5083821;28;20095;-95
2022/01/03 03:05:40;;;;;;;26.52;15.32;;;;;;;7.77;100.00;99488.16;5083177;28;20048;-95
2022/01/03 03:08:07;;;;;;;29.65;16.23;;;;;;;7.84;100.00;99502.25;5083377;28;20052;-94
2022/01/03 03:10:33;;;;;;;29.88;15.88;;;;;;;7.76;100.00;99502.25;5083485;28;20123;-94
2022/01/03 03:13:02;;;;;;;27.13;15.82;;;;;;;7.78;100.00;99498.72;5082742;28;20052;-95
2022/01/03 03:15:28;;;;;;;;;;;;;;;7.93;100.00;99518.97;5082662;28;20056;-95
2022/01/03 03:17:54;;;;;;;25.45;14.82;;;;;;;7.78;100.00;99493.41;5083891;28;19956;-96
2022/01/03 03:20:21;;;;;;;25.77;14.52;;;;;;;7.74;100.00;99485.50;5084699;28;20052;-95
2022/01/03 03:22:49;;;;;;;28.25;16.20;;;;;;;7.71;100.00;99504.94;5084151;28;20048;-95
2022/01/03 03:25:19;;;;;;;27.83;16.35;;;;;;;7.73;100.00;99503.16;5083974;28;20051;-95
2022/01/03 03:27:49;;;;;;;29.42;16.20;;;;;;;7.77;100.00;99504.03;5083124;28;20045;-95
2022/01/03 03:30:21;;;;;;;25.73;15.67;;;;;;;7.75;100.00;99495.22;5082969;28;20558;-94
2022/01/03 03:32:49;;;;;;;30.85;16.15;;;;;;;7.95;100.00;99517.19;5084660;28;20498;-95
2022/01/03 03:35:16;;;;;;;27.42;14.73;;;;;;;7.96;100.00;99523.38;5084964;28;20037;-95
2022/01/03 03:37:42;;;;;;;26.33;15.43;;;;;;;7.79;100.00;99494.31;5084839;28;20124;-95
2022/01/03 03:40:09;;;;;;;24.83;14.68;;;;;;;7.82;100.00;99494.31;5085440;28;20032;-95
2022/01/03 03:42:35;;;;;;;25.75;14.55;;;;;;;7.77;100.00;99496.09;5082777;28;20104;-95
2022/01/03 03:45:03;;;;;;;27.08;15.90;;;;;;;7.85;100.00;99510.19;5082062;28;20082;-95
2022/01/03 03:47:34;;;;;;;25.65;15.85;;;;;;;7.84;100.00;99510.19;5082626;28;20037;-95
2022/01/03 03:50:01;;;;;;;25.60;14.82;;;;;;;7.97;100.00;99523.34;5081607;28;20044;-96
2022/01/03 03:52:26;;;;;;;27.40;14.68;;;;;;;7.90;100.00;99512.81;5082749;28;20048;-96
2022/01/03 03:54:53;;;;;;;24.02;14.23;;;;;;;7.94;100.00;99520.75;5082960;28;20043;-95
2022/01/03 03:57:20;;;;;;;25.17;14.60;;;;;;;7.90;100.00;99495.16;5082729;28;20036;-96
2022/01/03 03:59:46;;;;;;;24.35;13.90;;;;;;;7.80;100.00;99467.81;5083291;28;20044;-95
2022/01/03 04:02:12;;;;;;;25.88;13.80;;;;;;;7.99;100.00;99508.34;5083390;28;20048;-95
2022/01/03 04:04:42;;;;;;;28.13;15.40;;;;;;;7.84;100.00;99478.41;5083871;28;20137;-95
2022/01/03 04:07:09;;;;;;;26.65;14.85;;;;;;;7.85;100.00;99478.41;5083316;28;20063;-96
2022/01/03 04:09:35;;;;;;;26.05;14.85;;;;;;;7.92;100.00;99485.44;5082914;28;20106;-95
2022/01/03 04:12:01;;;;;;;26.13;14.55;;;;;;;7.99;100.00;99486.28;5082788;28;20102;-95
2022/01/03 04:14:27;;;;;;;28.83;15.35;;;;;;;7.85;100.00;99470.47;5083361;28;20402;-96
2022/01/03 04:16:53;;;;;;;30.05;15.70;;;;;;;7.81;100.00;99461.66;5083084;28;20040;-95
2022/01/03 04:19:20;;;;;;;26.77;15.23;;;;;;;7.78;100.00;99460.78;5082738;28;20052;-94
2022/01/03 04:21:48;;;;;;;29.33;17.02;;;;;;;7.92;100.00;99482.78;5082786;28;20051;-95
2022/01/03 04:24:14;;;;;;;25.27;15.05;;;;;;;7.73;100.00;99450.22;5083750;28;20402;-94
2022/01/03 04:26:40;;;;;;;28.70;15.07;;;;;;;7.78;100.00;99460.78;5081908;28;20418;-94
2022/01/03 04:29:07;;;;;;;25.70;15.02;;;;;;;7.72;100.00;99453.75;5082335;28;20044;-95
2022/01/03 04:31:33;;;;;;;27.15;15.30;;;;;;;7.68;100.00;99459.97;5083096;28;20052;-95
2022/01/03 04:33:59;;;;;;;28.63;15.98;;;;;;;7.65;100.00;99469.66;5082720;28;20494;-94
2022/01/03 04:36:27;;;;;;;27.75;15.75;;;;;;;7.66;100.00;99466.16;5081819;28;20068;-94
2022/01/03 04:38:56;;;;;;;25.98;14.75;;;;;;;7.79;100.00;99484.59;5082731;28;20041;-95
2022/01/03 04:41:21;;;;;;;;;;;;;;;7.87;100.00;99497.81;5083889;28;20098;-95
2022/01/03 04:43:47;;;;;;;26.75;14.45;;;;;;;7.82;100.00;99491.66;5082495;28;19924;-94
2022/01/03 04:46:13;;;;;;;25.85;15.23;;;;;;;7.82;100.00;99494.31;5082691;28;20143;-94
2022/01/03 04:48:41;;;;;;;23.92;14.38;;;;;;;7.68;100.00;99473.19;5082061;28;20106;-94
2022/01/03 04:51:08;;;;;;;24.98;14.77;;;;;;;7.73;100.00;99486.41;5082155;28;20079;-95
2022/01/03 04:53:39;;;;;;;27.45;14.20;;;;;;;7.72;100.00;99487.28;5081787;28;20075;-94
2022/01/03 04:56:08;;;;;;;27.35;15.15;;;;;;;7.81;100.00;99517.25;5082087;28;20552;-94
2022/01/03 04:58:34;;;;;;;;;;;;;;;7.86;100.00;99506.63;5082369;28;20048;-95
2022/01/03 05:04:34;;;;;;;29.70;15.10;;;;;;;7.83;100.00;99451.06;5083189;28;20058;-94
2022/01/03 05:07:02;;;;;;;24.70;13.70;;;;;;;7.78;100.00;99435.16;5081705;28;20041;-95
2022/01/03 05:09:28;;;;;;;26.98;15.13;;;;;;;7.76;100.00;99421.09;5082127;28;20084;-94
2022/01/03 05:11:56;;;;;;;27.50;15.00;;;;;;;7.87;100.00;99455.47;5081780;28;20051;-94
2022/01/03 05:14:24;;;;;;;24.40;14.93;;;;;;;7.65;100.00;99436.13;5081560;28;20041;-94
2022/01/03 05:20:12;;;;;;;29.20;14.68;;;;;;;7.73;100.00;99436.97;5081768;28;20036;-95
2022/01/03 05:22:39;;;;;;;23.67;14.20;;;;;;;7.85;100.00;99461.63;5081566;28;20060;-95
2022/01/03 05:25:07;;;;;;;29.40;15.27;;;;;;;7.70;100.00;99449.34;5081627;28;20044;-95
2022/01/03 05:27:37;;;;;;;26.27;14.70;;;;;;;7.67;100.00;99437.00;5080804;28;20060;-95
2022/01/03 05:30:21;;;;;;;27.40;15.68;;;;;;;7.82;100.00;99460.75;5081588;28;20048;-94
2022/01/03 05:32:47;;;;;;;24.70;14.55;;;;;;;7.73;100.00;99455.50;5082214;28;20048;-95
2022/01/03 05:35:13;;;;;;;27.08;14.90;;;;;;;7.60;100.00;99436.16;5081532;28;20402;-95
2022/01/03 05:37:41;;;;;;;25.77;15.35;;;;;;;7.63;100.00;99437.03;5081429;28;20123;-93
2022/01/03 05:40:09;;;;;;;26.25;14.73;;;;;;;7.68;100.00;99448.50;5081752;28;20110;-95
2022/01/03 05:42:36;;;;;;;26.40;15.23;;;;;;;7.64;100.00;99452.91;5080776;28;20049;-96
2022/01/03 05:45:04;;;;;;;30.33;16.15;;;;;;;7.65;100.00;99459.94;5081263;28;20045;-96
2022/01/03 05:47:31;;;;;;;24.27;14.55;;;;;;;7.69;100.00;99461.69;5080776;28;20051;-96
2022/01/03 05:49:57;;;;;;;24.92;15.05;;;;;;;7.67;100.00;99450.22;5082076;28;20494;-95
2022/01/03 05:52:23;;;;;;;25.08;14.30;;;;;;;7.67;100.00;99444.94;5082061;28;20104;-95
2022/01/03 05:54:49;;;;;;;26.77;14.40;;;;;;;7.78;100.00;99456.34;5081556;28;20064;-95
2022/01/03 05:57:15;;;;;;;23.85;14.07;;;;;;;7.70;100.00;99433.44;5082467;28;20044;-95
2022/01/03 05:59:42;;;;;;;26.85;14.35;;;;;;;7.81;100.00;99455.47;5082456;28;20047;-95
2022/01/03 06:02:08;;;;;;;26.50;14.15;;;;;;;7.70;100.00;99434.34;5083399;28;20056;-95
2022/01/03 06:04:52;;;;;;;25.10;14.13;;;;;;;7.72;100.00;99418.44;5082724;28;20045;-96
2022/01/03 06:07:19;;;;;;;23.23;13.43;;;;;;;7.86;100.00;99434.28;5083050;28;20055;-96
2022/01/03 06:09:45;;;;;;;25.88;14.07;;;;;;;7.76;100.00;99422.84;5082330;28;20532;-95
2022/01/03 06:12:11;;;;;;;22.65;12.90;;;;;;;7.70;100.00;99414.91;5082484;28;20032;-96
2022/01/03 06:14:38;;;;;;;23.38;13.32;;;;;;;7.75;100.00;99429.91;5085641;28;20104;-94
2022/01/03 06:17:08;;;;;;;21.83;13.45;;;;;;;7.83;100.00;99459.00;5088183;28;20047;-95
2022/01/03 06:19:35;;;;;;;22.70;13.73;;;;;;;7.69;100.00;99431.72;5085682;28;20055;-95
2022/01/03 06:22:03;;;;;;;24.45;14.32;;;;;;;7.70;100.00;99438.75;5084658;28;20162;-96
2022/01/03 06:24:29;;;;;;;23.83;13.25;;;;;;;7.72;100.00;99439.63;5084559;28;20049;-96
2022/01/03 06:26:55;;;;;;;27.10;13.93;;;;;;;7.74;100.00;99411.38;5086395;28;20088;-96
2022/01/03 06:29:21;;;;;;;24.90;13.80;;;;;;;7.74;100.00;99403.44;5086763;28;20041;-95
2022/01/03 06:31:48;;;;;;;23.58;13.65;;;;;;;7.83;100.00;99429.88;5087226;28;20076;-93
2022/01/03 06:34:17;;;;;;;22.45;12.73;;;;;;;7.81;100.00;99436.94;5087515;28;20044;-95
2022/01/03 06:36:44;;;;;;;21.90;12.63;;;;;;;7.77;100.00;99444.03;5087922;28;20116;-95
2022/01/03 06:39:11;;;;;;;21.35;12.65;;;;;;;7.76;100.00;99446.66;5087446;28;20036;-96
2022/01/03 06:41:39;;;;;;;21.27;13.13;;;;;;;7.77;100.00;99441.38;5087741;28;20045;-95
2022/01/03 06:44:06;;;;;;;26.38;14.15;;;;;;;7.70;100.00;99430.81;5088970;28;20270;-95
2022/01/03 06:46:33;;;;;;;22.33;13.52;;;;;;;7.73;100.00;99431.69;5087718;28;20047;-95
2022/01/03 06:49:00;;;;;;;23.65;12.77;;;;;;;7.75;100.00;99429.91;5086965;28;20433;-95
2022/01/03 06:51:34;;;;;;;22.02;12.90;;;;;;;7.94;100.00;99470.41;5087751;28;20108;-95
2022/01/03 06:54:04;;;;;;;22.50;12.95;;;;;;;7.76;100.00;99426.38;5086786;28;20048;-95
2022/01/03 06:56:30;;;;;;;20.92;12.65;;;;;;;7.79;100.00;99415.78;5087526;28;20041;-94
2022/01/03 06:58:56;;;;;;;22.05;12.20;;;;;;;7.79;100.00;99420.19;5086441;28;20049;-95
2022/01/03 07:04:45;;;;;;;22.38;11.82;;;;;;;7.88;100.00;99430.72;5088583;28;20594;-94
2022/01/03 07:07:14;;;;;;;19.88;12.05;;;;;;;7.99;100.00;99449.19;5088087;28;20041;-95
2022/01/03 07:09:40;;;;;;;21.30;11.55;;;;;;;7.87;100.00;99428.97;5088260;28;20044;-93
2022/01/03 07:12:07;;;;;;;19.95;11.25;;;;;;;7.95;100.00;99434.22;5088826;28;20049;-94
2022/01/03 07:21:20;;;;;;;20.45;11.73;;;;;;;7.90;100.00;99431.59;5125935;28;20042;-93
2022/01/03 07:23:46;;;;;;;21.58;12.10;;;;;;;7.90;100.00;99428.06;5125718;28;20048;-95
2022/01/03 07:26:13;;;;;;;20.55;11.93;;;;;;;7.91;100.00;99440.41;5124887;28;20044;-95
2022/01/03 07:28:39;;;;;;;21.45;11.55;;;;;;;8.12;100.00;99469.44;5125116;28;20039;-95
2022/01/03 07:31:06;;;;;;;21.20;11.95;;;;;;;7.97;100.00;99424.50;5124932;28;20071;-94
2022/01/03 07:33:33;;;;;;;24.05;12.93;;;;;;;7.97;100.00;99428.00;5125288;28;20047;-96
2022/01/03 07:35:59;;;;;;;18.98;10.88;;;;;;;8.00;100.00;99432.41;5125130;28;20044;-96
2022/01/03 07:38:27;;;;;;;19.95;11.35;;;;;;;8.00;100.00;99440.34;5125693;28;20072;-96
2022/01/03 07:40:53;;;;;;;24.08;12.32;;;;;;;7.99;100.00;99434.19;5126321;28;20048;-93
2022/01/03 07:43:20;;;;;;;22.27;12.05;;;;;;;8.00;100.00;99430.66;5125486;28;20078;-94
2022/01/03 07:49:14;;;;;;;18.67;11.57;;;;;;;8.25;100.00;99442.88;5122022;28;20039;-96
2022/01/03 07:51:40;;;;;;;22.08;11.43;;;;;;;8.16;100.00;99433.22;5119769;28;20460;-96
2022/01/03 07:54:08;;;;;;;20.55;11.45;;;;;;;8.18;100.00;99434.09;5119220;28;20072;-96
2022/01/03 07:56:34;;;;;;;21.45;11.38;;;;;;;8.22;100.00;99436.69;5119673;28;20367;-95
2022/01/03 07:59:00;;;;;;;18.35;11.38;;;;;;;8.24;100.00;99442.00;5118517;28;20078;-96
2022/01/03 08:04:48;;;;;;;23.42;12.27;;;;;;;8.23;100.00;99441.09;5115528;28;20035;-96
2022/01/03 08:07:14;;;;;;;20.70;12.48;;;;;;;8.48;100.00;99454.22;5112734;28;20113;-95
2022/01/03 08:09:42;;;;;;;21.70;12.73;;;;;;;8.40;100.00;99430.41;5114232;28;20107;-94
2022/01/03 08:12:09;;;;;;;22.95;13.60;;;;;;;8.32;100.00;99408.34;5115481;28;20040;-95
2022/01/03 08:14:35;;;;;;;26.73;15.32;;;;;;;8.44;100.00;99425.97;5114837;28;20104;-94
2022/01/03 08:20:25;;;;;;;28.42;16.25;;;;;;;8.45;100.00;99426.84;5115202;28;20032;-95
2022/01/03 08:22:51;;;;;;;29.75;18.35;;;;;;;8.38;100.00;99452.47;5116762;28;20044;-95
2022/01/03 08:25:20;;;;;;;26.70;15.85;;;;;;;8.23;100.00;99437.56;5117674;28;20046;-96
2022/01/03 08:27:46;;;;;;;26.95;15.68;;;;;;;8.35;100.00;99464.00;5107389;28;20048;-95
2022/01/03 08:30:12;;;;;;;28.13;15.95;;;;;;;8.28;100.00;99454.31;5102036;28;20107;-95
2022/01/03 08:32:38;;;;;;;26.10;16.08;;;;;;;8.36;100.00;99468.38;5101864;28;20044;-94
2022/01/03 08:35:05;;;;;;;26.90;16.00;;;;;;;8.19;100.00;99449.06;5104449;28;20047;-95
2022/01/03 08:37:31;;;;;;;25.50;14.88;;;;;;;8.27;100.00;99455.22;5103851;28;20059;-96
2022/01/03 08:39:58;;;;;;;27.70;16.33;;;;;;;8.13;100.00;99443.81;5102073;28;20036;-94
2022/01/03 08:42:26;;;;;;;25.75;14.80;;;;;;;8.22;100.00;99467.63;5103556;28;20047;-96
2022/01/03 08:44:52;;;;;;;23.10;13.05;;;;;;;8.13;100.00;99462.34;5103553;28;20047;-96
2022/01/03 08:50:40;;;;;;;35.53;19.58;;;;;;;8.45;100.00;99463.94;5102268;28;20024;-94
2022/01/03 08:53:06;;;;;;;31.67;18.17;;;;;;;8.37;100.00;99438.38;5101781;28;20593;-95
2022/01/03 08:55:32;;;;;;;23.30;13.23;;;;;;;8.51;100.00;99458.59;5104240;28;20044;-96
2022/01/03 08:57:59;;;;;;;24.65;15.05;;;;;;;8.29;100.00;99452.56;5106024;28;20116;-96
2022/01/03 09:04:30;;;;;;;21.92;12.52;;;;;;;8.54;100.00;99463.88;5104470;28;20599;-95
2022/01/03 09:06:58;;;;;;;92.75;41.97;;;;;;;8.59;100.00;99462.97;5102221;28;20023;-95
2022/01/03 09:09:26;;;;;;;63.65;28.77;;;;;;;8.63;100.00;99445.25;5101132;28;20517;-95
2022/01/03 09:11:52;;;;;;;43.90;22.40;;;;;;;8.57;100.00;99435.59;5101518;28;20036;-94
2022/01/03 09:14:19;;;;;;;23.88;14.10;;;;;;;8.53;100.00;99443.56;5103472;28;20051;-94
2022/01/03 09:20:07;;;;;;;26.90;17.08;;;;;;;8.82;100.00;99460.09;5103992;28;20015;-95
2022/01/03 09:22:40;;;;;;;27.13;16.55;;;;;;;8.71;100.00;99419.53;5102123;28;20059;-94
2022/01/03 09:34:47;;;;;;;24.23;16.17;;;;;;;9.24;100.00;99427.88;5113594;28;20032;-94
2022/01/03 09:37:17;;;;;;;31.63;17.10;;;;;;;9.28;100.00;99426.91;5113054;28;20058;-96
2022/01/03 09:39:44;;;;;;;41.42;26.58;;;;;;;9.21;100.00;99420.78;5112859;28;20036;-93
2022/01/03 09:42:14;;;;;;;32.10;16.25;;;;;;;9.24;100.00;99454.41;5115688;28;20131;-93
2022/01/03 09:44:44;;;;;;;30.42;19.42;;;;;;;9.16;100.00;99427.06;5114047;28;20083;-94
2022/01/03 09:50:34;;;;;;;27.42;15.50;;;;;;;9.08;100.00;99434.22;5118104;28;20050;-93
2022/01/03 09:53:03;;;;;;;23.53;12.37;;;;;;;9.13;100.00;99443.00;5117205;28;20146;-93
2022/01/03 09:55:56;;;;;;;19.08;11.80;;;;;;;9.36;100.00;99478.16;5117870;28;20073;-95
2022/01/03 09:58:24;;;;;;;20.05;12.20;;;;;;;9.20;100.00;99464.16;5111277;28;20040;-94
2022/01/03 10:00:52;;;;;;;17.75;10.85;;;;;;;9.15;99.65;99444.78;5116035;28;20524;-93
2022/01/03 10:03:20;;;;;;;55.40;41.45;;;;;;;9.42;99.64;99461.28;5114582;28;20109;-96
2022/01/03 10:05:49;;;;;;;25.98;16.13;;;;;;;9.51;100.00;99468.25;5113391;28;20505;-96
2022/01/03 10:08:21;;;;;;;26.47;16.63;;;;;;;9.30;99.60;99437.53;5115526;28;20040;-94
2022/01/03 10:10:47;;;;;;;26.83;15.88;;;;;;;9.41;99.63;99468.38;5117121;28;20036;-95
2022/01/03 10:13:15;;;;;;;23.25;14.38;;;;;;;9.35;99.22;99448.97;5114270;28;20082;-94
2022/01/03 10:15:41;;;;;;;49.35;28.85;;;;;;;9.38;99.91;99448.94;5114787;28;20594;-95
2022/01/03 10:18:16;;;;;;;22.23;14.40;;;;;;;9.45;99.07;99469.19;5115440;28;20092;-96
2022/01/03 10:20:44;;;;;;;22.63;15.30;;;;;;;9.40;99.44;99457.75;5115801;28;20046;-94
2022/01/03 10:23:14;;;;;;;24.95;16.10;;;;;;;9.46;99.37;99463.88;5114659;28;20086;-93
2022/01/03 10:25:41;;;;;;;21.67;14.25;;;;;;;9.50;99.60;99445.25;5112909;28;20048;-95
2022/01/03 10:28:07;;;;;;;26.80;18.20;;;;;;;9.75;99.47;99472.41;5112157;28;20509;-94
2022/01/03 10:34:32;;;;;;;43.20;24.88;;;;;;;9.88;99.46;99476.66;5113136;28;20119;-93
2022/01/03 10:36:59;;;;;;;46.85;27.27;;;;;;;9.90;99.05;99468.66;5111625;28;20040;-93
2022/01/03 10:39:34;;;;;;;48.33;24.77;;;;;;;9.83;99.09;99458.13;5111167;28;20039;-94
2022/01/03 10:42:14;;;;;;;29.20;17.25;;;;;;;9.76;99.88;99424.56;5098796;28;20137;-94
2022/01/03 10:44:41;;;;;;;35.90;22.05;;;;;;;9.75;100.00;99432.56;5097608;28;20048;-95
2022/01/03 10:50:29;;;;;;;26.30;15.82;;;;;;;10.12;100.00;99409.00;5097238;28;20028;-94
2022/01/03 10:52:56;;;;;;;34.92;21.42;;;;;;;10.24;99.70;99415.94;5097254;28;20047;-94
2022/01/03 10:55:30;;;;;;;35.38;22.73;;;;;;;10.47;99.22;99423.56;5098119;28;20063;-94
2022/01/03 10:57:58;;;;;;;47.67;31.20;;;;;;;10.52;98.14;99387.16;5097683;28;20043;-94
2022/01/03 11:04:42;;;;;;;57.17;38.72;;;;;;;10.88;97.00;99414.88;5096978;28;20040;-95
2022/01/03 11:13:33;;;;;;;32.08;19.45;;;;;;;11.00;95.33;99396.94;5112648;27;20377;-94
2022/01/03 11:19:35;;;;;;;30.75;19.30;;;;;;;10.85;95.52;99385.66;5113343;28;20036;-96
2022/01/03 11:22:02;;;;;;;24.45;14.73;;;;;;;10.83;96.13;99378.63;5114179;28;20047;-95
2022/01/03 11:24:28;;;;;;;30.00;20.05;;;;;;;10.91;95.74;99379.38;5112578;28;20397;-94
2022/01/03 11:26:56;;;;;;;31.17;19.38;;;;;;;10.83;94.87;99365.31;5112729;28;20035;-94
2022/01/03 11:29:28;;;;;;;27.35;19.05;;;;;;;11.01;95.36;99382.72;5113984;28;20048;-93
2022/01/03 11:35:17;;;;;;;33.58;21.92;;;;;;;11.12;95.05;99369.19;5112581;28;20046;-94
2022/01/03 11:37:46;;;;;;;45.42;28.73;;;;;;;11.12;94.74;99367.41;5112555;28;20047;-95
2022/01/03 11:40:14;;;;;;;51.90;37.70;;;;;;;11.15;93.87;99385.13;5112340;28;20050;-93
2022/01/03 11:42:42;;;;;;;33.17;21.42;;;;;;;10.83;95.58;99358.22;5112649;28;20067;-93
2022/01/03 11:48:31;;;;;;;41.75;26.65;;;;;;;10.95;95.03;99351.78;5112054;28;20221;-94
2022/01/03 11:51:02;;;;;;;30.95;21.38;;;;;;;11.10;95.15;99366.56;5112611;28;20040;-94
2022/01/03 11:53:29;;;;;;;31.08;20.45;;;;;;;11.02;94.71;99352.56;5111972;28;20036;-93
2022/01/03 11:55:56;;;;;;;25.05;16.40;;;;;;;10.92;93.62;99345.66;5111657;28;20044;-93
2022/01/03 11:58:47;;;;;;;21.63;13.07;;;;;;;11.08;94.21;99379.03;5111686;28;20046;-94
2022/01/03 12:04:40;;;;;;;23.70;13.13;;;;;;;10.95;94.00;99354.47;5112002;28;20024;-93
2022/01/03 12:07:08;;;;;;;25.98;17.80;;;;;;;11.08;94.78;99344.41;5111702;28;20047;-94
2022/01/03 12:09:40;;;;;;;26.85;18.63;;;;;;;11.16;95.15;99342.50;5112015;28;20135;-94
2022/01/03 12:12:07;;;;;;;20.45;15.30;;;;;;;11.30;94.38;99323.59;5111303;28;20051;-94
2022/01/03 12:14:42;;;;;;;30.88;21.98;;;;;;;11.40;93.92;99329.56;5113330;28;20513;-94
2022/01/03 12:17:10;;;;;;;18.08;11.93;;;;;;;11.43;92.54;99308.22;5113691;28;20416;-94
2022/01/03 12:19:40;;;;;;;20.38;12.43;;;;;;;11.68;92.86;99335.19;5113662;28;20048;-95
2022/01/03 12:22:12;;;;;;;24.35;14.73;;;;;;;11.82;91.64;99329.53;5112110;28;20043;-94
2022/01/03 12:24:54;;;;;;;25.63;15.27;;;;;;;11.75;91.48;99291.47;5099172;28;20367;-95
2022/01/03 12:27:25;;;;;;;26.20;16.17;;;;;;;12.03;90.17;99307.72;5099332;28;20051;-94
2022/01/03 12:36:38;;;;;;;19.23;11.38;;;;;;;12.19;87.58;99297.56;5099766;28;20050;-94
2022/01/03 12:39:07;;;;;;;21.02;12.90;;;;;;;12.23;86.63;99293.91;5099319;28;20040;-93
2022/01/03 12:41:41;;;;;;;40.85;22.77;;;;;;;12.31;87.22;99285.72;5098442;28;20054;-94
2022/01/03 12:44:11;;;;;;;22.88;13.75;;;;;;;12.29;87.51;99283.06;5099480;28;20503;-95
2022/01/03 12:50:21;;;;;;;36.25;26.08;;;;;;;12.17;87.55;99286.06;5099817;28;20108;-94
2022/01/03 12:52:50;;;;;;;26.45;17.60;;;;;;;12.05;87.79;99281.91;5099744;28;20510;-94
2022/01/03 12:55:46;;;;;;;22.77;13.77;;;;;;;12.00;88.33;99270.50;5099000;28;20040;-94
2022/01/03 12:58:36;;;;;;;18.33;11.65;;;;;;;12.07;88.45;99276.53;5098613;28;20041;-95
2022/01/03 13:04:25;;;;;;;15.05;9.57;;;;;;;11.79;87.52;99261.19;5100049;28;20062;-94
2022/01/03 13:06:59;;;;;;;16.67;10.68;;;;;;;11.75;88.46;99255.97;5100160;28;20094;-93
2022/01/03 13:09:27;;;;;;;14.98;9.77;;;;;;;11.75;88.25;99258.66;5100302;28;20048;-95
2022/01/03 13:11:59;;;;;;;31.67;21.98;;;;;;;11.82;86.00;99236.25;5100215;28;20063;-95
2022/01/03 13:14:26;;;;;;;18.55;12.60;;;;;;;11.90;86.96;99235.19;5100814;28;20070;-93
2022/01/03 13:20:15;;;;;;;17.70;11.55;;;;;;;12.09;86.43;99205.41;5099659;28;20046;-96
2022/01/03 13:22:42;;;;;;;24.38;14.07;;;;;;;12.18;87.67;99196.28;5099009;28;20051;-94
2022/01/03 13:25:10;;;;;;;23.33;13.77;;;;;;;12.27;87.26;99220.03;5099446;28;20047;-94
2022/01/03 13:27:36;;;;;;;26.58;15.18;;;;;;;12.24;87.69;99228.13;5099180;28;20127;-94
2022/01/03 13:36:45;;;;;;;23.08;14.25;;;;;;;12.15;87.30;99213.25;5098317;28;20039;-95